sensor_id;sensor_type;location;lat;lon;timestamp;pressure;altitude;pressure_sealevel;temperature;humidity
51299;BME280;37382;45.192;9.790;2023-01-28T05:02:39;101455.06;;;0.39;100.00
51299;BME280;37382;45.192;9.790;2023-01-28T05:05:08;101462.19;;;0.27;100.00
51299;BME280;37382;45.192;9.790;2023-01-28T05:07:51;101471.13;;;0.39;100.00
51299;BME280;37382;45.192;9.790;2023-01-28T05:10:19;101467.13;;;0.68;100.00
51299;BME280;37382;45.192;9.790;2023-01-28T05:12:48;101467.81;;;0.35;100.00
51299;BME280;37382;45.192;9.790;2023-01-28T05:15:18;101466.47;;;0.29;100.00
51299;BME280;37382;45.192;9.790;2023-01-28T05:17:47;101467.06;;;0.09;100.00
51299;BME280;37382;45.192;9.790;2023-01-28T05:20:17;101461.31;;;-0.11;100.00
51299;BME280;37382;45.192;9.790;2023-01-28T05:22:47;101465.94;;;-0.13;100.00
51299;BME280;37382;45.192;9.790;2023-01-28T05:25:18;101466.13;;;-0.03;100.00
51299;BME280;37382;45.192;9.790;2023-01-28T05:27:50;101467.13;;;-0.17;100.00
51299;BME280;37382;45.192;9.790;2023-01-28T05:30:18;101464.00;;;-0.11;100.00
51299;BME280;37382;45.192;9.790;2023-01-28T05:32:45;101467.94;;;-0.04;100.00
51299;BME280;37382;45.192;9.790;2023-01-28T05:35:16;101472.06;;;0.13;100.00
51299;BME280;37382;45.192;9.790;2023-01-28T05:37:44;101468.44;;;0.14;100.00
51299;BME280;37382;45.192;9.790;2023-01-28T05:40:12;101473.13;;;0.24;100.00
51299;BME280;37382;45.192;9.790;2023-01-28T05:42:41;101467.28;;;0.43;100.00
51299;BME280;37382;45.192;9.790;2023-01-28T05:45:31;101473.84;;;0.50;100.00
51299;BME280;37382;45.192;9.790;2023-01-28T05:48:02;101474.28;;;0.57;100.00
51299;BME280;37382;45.192;9.790;2023-01-28T05:51:02;101475.44;;;0.77;100.00
51299;BME280;37382;45.192;9.790;2023-01-28T05:53:34;101476.53;;;0.50;100.00
51299;BME280;37382;45.192;9.790;2023-01-28T05:56:02;101472.94;;;0.62;100.00
51299;BME280;37382;45.192;9.790;2023-01-28T05:58:32;101484.78;;;0.47;100.00
51299;BME280;37382;45.192;9.790;2023-01-28T06:01:02;101484.63;;;0.61;100.00
51299;BME280;37382;45.192;9.790;2023-01-28T06:03:39;101479.09;;;0.51;100.00
51299;BME280;37382;45.192;9.790;2023-01-28T06:06:07;101486.78;;;0.32;100.00
51299;BME280;37382;45.192;9.790;2023-01-28T06:08:34;101490.88;;;0.25;100.00
51299;BME280;37382;45.192;9.790;2023-01-28T06:11:03;101495.50;;;0.47;100.00
51299;BME280;37382;45.192;9.790;2023-01-28T06:13:34;101494.09;;;0.78;100.00
51299;BME280;37382;45.192;9.790;2023-01-28T06:16:22;101500.47;;;0.40;100.00
51299;BME280;37382;45.192;9.790;2023-01-28T06:19:19;101500.47;;;0.64;100.00
51299;BME280;37382;45.192;9.790;2023-01-28T06:21:47;101495.00;;;1.01;100.00
51299;BME280;37382;45.192;9.790;2023-01-28T06:24:14;101493.69;;;1.07;100.00
51299;BME280;37382;45.192;9.790;2023-01-28T06:26:41;101499.75;;;0.98;100.00
51299;BME280;37382;45.192;9.790;2023-01-28T06:29:10;101498.22;;;1.18;100.00
51299;BME280;37382;45.192;9.790;2023-01-28T06:31:38;101509.19;;;1.26;100.00
51299;BME280;37382;45.192;9.790;2023-01-28T06:34:07;101508.53;;;1.11;100.00
51299;BME280;37382;45.192;9.790;2023-01-28T06:36:35;101515.31;;;0.93;100.00
51299;BME280;37382;45.192;9.790;2023-01-28T06:39:04;101515.50;;;0.78;100.00
51299;BME280;37382;45.192;9.790;2023-01-28T06:41:32;101521.09;;;0.51;100.00
51299;BME280;37382;45.192;9.790;2023-01-28T06:44:00;101530.63;;;0.79;100.00
51299;BME280;37382;45.192;9.790;2023-01-28T06:46:28;101534.53;;;0.86;100.00
51299;BME280;37382;45.192;9.790;2023-01-28T06:48:56;101532.38;;;0.92;100.00
51299;BME280;37382;45.192;9.790;2023-01-28T06:51:23;101535.22;;;0.77;100.00
51299;BME280;37382;45.192;9.790;2023-01-28T06:53:51;101544.94;;;0.54;100.00
51299;BME280;37382;45.192;9.790;2023-01-28T06:56:18;101540.41;;;0.67;100.00
51299;BME280;37382;45.192;9.790;2023-01-28T06:58:46;101545.88;;;0.90;100.00
51299;BME280;37382;45.192;9.790;2023-01-28T07:01:13;101557.63;;;0.76;100.00
51299;BME280;37382;45.192;9.790;2023-01-28T07:03:41;101559.44;;;0.76;100.00
51299;BME280;37382;45.192;9.790;2023-01-28T07:06:09;101565.66;;;0.39;100.00
51299;BME280;37382;45.192;9.790;2023-01-28T07:08:36;101565.16;;;0.34;100.00
51299;BME280;37382;45.192;9.790;2023-01-28T07:11:04;101573.44;;;0.55;100.00
51299;BME280;37382;45.192;9.790;2023-01-28T07:13:32;101571.88;;;0.77;100.00
51299;BME280;37382;45.192;9.790;2023-01-28T07:15:59;101571.19;;;0.86;100.00
51299;BME280;37382;45.192;9.790;2023-01-28T07:18:27;101569.50;;;0.48;100.00
51299;BME280;37382;45.192;9.790;2023-01-28T07:20:55;101580.56;;;0.30;100.00
51299;BME280;37382;45.192;9.790;2023-01-28T07:23:23;101573.56;;;0.41;100.00
51299;BME280;37382;45.192;9.790;2023-01-28T07:25:51;101586.22;;;0.26;100.00
51299;BME280;37382;45.192;9.790;2023-01-28T07:28:18;101585.47;;;0.37;100.00
51299;BME280;37382;45.192;9.790;2023-01-28T07:30:49;101592.75;;;0.34;100.00
51299;BME280;37382;45.192;9.790;2023-01-28T07:33:19;101599.31;;;0.67;100.00
51299;BME280;37382;45.192;9.790;2023-01-28T07:35:47;101610.19;;;0.90;100.00
51299;BME280;37382;45.192;9.790;2023-01-28T07:38:15;101598.09;;;1.09;100.00
51299;BME280;37382;45.192;9.790;2023-01-28T07:40:43;101600.28;;;1.39;100.00
51299;BME280;37382;45.192;9.790;2023-01-28T07:43:11;101602.09;;;1.38;100.00
51299;BME280;37382;45.192;9.790;2023-01-28T07:45:40;101599.94;;;1.44;100.00
51299;BME280;37382;45.192;9.790;2023-01-28T07:48:10;101603.44;;;1.44;100.00
51299;BME280;37382;45.192;9.790;2023-01-28T07:50:38;101610.13;;;1.38;100.00
51299;BME280;37382;45.192;9.790;2023-01-28T07:53:09;101611.16;;;1.49;100.00
51299;BME280;37382;45.192;9.790;2023-01-28T07:55:37;101616.81;;;1.80;100.00
51299;BME280;37382;45.192;9.790;2023-01-28T07:58:06;101618.53;;;1.69;100.00
51299;BME280;37382;45.192;9.790;2023-01-28T08:00:35;101624.06;;;1.90;100.00
51299;BME280;37382;45.192;9.790;2023-01-28T08:03:11;101613.41;;;1.77;100.00
51299;BME280;37382;45.192;9.790;2023-01-28T08:05:45;101619.84;;;1.28;100.00
51299;BME280;37382;45.192;9.790;2023-01-28T08:08:14;101629.09;;;1.24;100.00
51299;BME280;37382;45.192;9.790;2023-01-28T08:10:42;101629.66;;;1.40;100.00
51299;BME280;37382;45.192;9.790;2023-01-28T08:13:11;101630.19;;;1.57;100.00
51299;BME280;37382;45.192;9.790;2023-01-28T08:15:39;101629.41;;;1.44;100.00
51299;BME280;37382;45.192;9.790;2023-01-28T08:18:11;101634.50;;;1.71;100.00
51299;BME280;37382;45.192;9.790;2023-01-28T08:20:41;101653.19;;;1.48;100.00
51299;BME280;37382;45.192;9.790;2023-01-28T08:23:13;101641.84;;;1.91;100.00
51299;BME280;37382;45.192;9.790;2023-01-28T08:25:41;101655.44;;;1.66;100.00
51299;BME280;37382;45.192;9.790;2023-01-28T08:28:10;101652.88;;;1.64;100.00
51299;BME280;37382;45.192;9.790;2023-01-28T08:30:38;101653.59;;;1.90;100.00
51299;BME280;37382;45.192;9.790;2023-01-28T08:33:08;101653.34;;;2.05;100.00
51299;BME280;37382;45.192;9.790;2023-01-28T08:35:36;101658.41;;;1.74;100.00
51299;BME280;37382;45.192;9.790;2023-01-28T08:38:05;101661.13;;;1.50;100.00
51299;BME280;37382;45.192;9.790;2023-01-28T08:40:34;101661.94;;;1.74;100.00
51299;BME280;37382;45.192;9.790;2023-01-28T08:43:02;101659.00;;;1.66;100.00
51299;BME280;37382;45.192;9.790;2023-01-28T08:45:29;101660.56;;;1.69;100.00
51299;BME280;37382;45.192;9.790;2023-01-28T08:48:05;101655.13;;;1.82;100.00
51299;BME280;37382;45.192;9.790;2023-01-28T08:50:35;101658.91;;;1.79;100.00
51299;BME280;37382;45.192;9.790;2023-01-28T08:53:05;101649.84;;;2.27;100.00
51299;BME280;37382;45.192;9.790;2023-01-28T08:55:33;101648.59;;;1.97;100.00
51299;BME280;37382;45.192;9.790;2023-01-28T08:58:02;101656.41;;;2.11;100.00
51299;BME280;37382;45.192;9.790;2023-01-28T09:00:30;101654.38;;;2.38;100.00
51299;BME280;37382;45.192;9.790;2023-01-28T09:02:58;101652.97;;;2.89;100.00
51299;BME280;37382;45.192;9.790;2023-01-28T09:05:25;101655.44;;;2.69;100.00
51299;BME280;37382;45.192;9.790;2023-01-28T09:07:52;101655.41;;;2.92;100.00
51299;BME280;37382;45.192;9.790;2023-01-28T09:10:20;101667.53;;;2.52;100.00
51299;BME280;37382;45.192;9.790;2023-01-28T09:12:48;101670.47;;;2.49;100.00
51299;BME280;37382;45.192;9.790;2023-01-28T09:15:16;101667.78;;;2.38;100.00
51299;BME280;37382;45.192;9.790;2023-01-28T09:17:43;101672.56;;;2.45;100.00
51299;BME280;37382;45.192;9.790;2023-01-28T09:20:11;101674.13;;;2.59;100.00
51299;BME280;37382;45.192;9.790;2023-01-28T09:22:40;101672.28;;;2.82;100.00
51299;BME280;37382;45.192;9.790;2023-01-28T09:25:08;101674.38;;;3.34;100.00
51299;BME280;37382;45.192;9.790;2023-01-28T09:27:35;101671.03;;;2.98;100.00
51299;BME280;37382;45.192;9.790;2023-01-28T09:30:03;101665.41;;;3.12;100.00
51299;BME280;37382;45.192;9.790;2023-01-28T09:32:31;101667.38;;;2.88;100.00
51299;BME280;37382;45.192;9.790;2023-01-28T09:34:58;101663.00;;;2.75;100.00
51299;BME280;37382;45.192;9.790;2023-01-28T09:37:26;101663.94;;;2.97;100.00
51299;BME280;37382;45.192;9.790;2023-01-28T09:39:54;101670.53;;;3.15;100.00
51299;BME280;37382;45.192;9.790;2023-01-28T09:45:21;101669.69;;;3.68;100.00
51299;BME280;37382;45.192;9.790;2023-01-28T09:47:56;101678.41;;;3.61;100.00
51299;BME280;37382;45.192;9.790;2023-01-28T09:50:34;101671.84;;;3.53;100.00
51299;BME280;37382;45.192;9.790;2023-01-28T09:53:15;101675.44;;;3.64;100.00
51299;BME280;37382;45.192;9.790;2023-01-28T09:56:05;101679.22;;;3.72;100.00
51299;BME280;37382;45.192;9.790;2023-01-28T09:58:34;101690.09;;;3.71;100.00
51299;BME280;37382;45.192;9.790;2023-01-28T10:03:54;101676.78;;;3.69;100.00
51299;BME280;37382;45.192;9.790;2023-01-28T10:09:20;101676.28;;;4.18;100.00
51299;BME280;37382;45.192;9.790;2023-01-28T10:15:25;101672.00;;;4.46;100.00
51299;BME280;37382;45.192;9.790;2023-01-28T10:18:08;101670.19;;;4.16;100.00
51299;BME280;37382;45.192;9.790;2023-01-28T10:20:50;101676.03;;;4.31;100.00
51299;BME280;37382;45.192;9.790;2023-01-28T10:25:52;101675.59;;;4.56;100.00
51299;BME280;37382;45.192;9.790;2023-01-28T10:28:24;101672.28;;;4.74;100.00
51299;BME280;37382;45.192;9.790;2023-01-28T10:30:53;101674.06;;;4.54;100.00
51299;BME280;37382;45.192;9.790;2023-01-28T10:35:55;101675.78;;;4.65;100.00
51299;BME280;37382;45.192;9.790;2023-01-28T10:38:25;101671.28;;;4.75;100.00
51299;BME280;37382;45.192;9.790;2023-01-28T10:40:57;101665.06;;;4.84;100.00
51299;BME280;37382;45.192;9.790;2023-01-28T10:43:30;101663.78;;;4.88;100.00
51299;BME280;37382;45.192;9.790;2023-01-28T10:48:53;101663.47;;;5.42;100.00
51299;BME280;37382;45.192;9.790;2023-01-28T10:51:36;101662.63;;;5.41;100.00
51299;BME280;37382;45.192;9.790;2023-01-28T10:57:11;101655.50;;;5.40;100.00
51299;BME280;37382;45.192;9.790;2023-01-28T10:59:40;101657.66;;;5.76;100.00
51299;BME280;37382;45.192;9.790;2023-01-28T11:05:15;101651.53;;;6.03;100.00
51299;BME280;37382;45.192;9.790;2023-01-28T11:07:47;101651.09;;;6.08;100.00
51299;BME280;37382;45.192;9.790;2023-01-28T11:10:31;101647.63;;;6.25;100.00
51299;BME280;37382;45.192;9.790;2023-01-28T11:13:02;101651.94;;;5.88;100.00
51299;BME280;37382;45.192;9.790;2023-01-28T11:15:31;101653.06;;;6.05;100.00
51299;BME280;37382;45.192;9.790;2023-01-28T11:18:02;101649.22;;;5.98;100.00
51299;BME280;37382;45.192;9.790;2023-01-28T11:20:41;101639.59;;;5.76;100.00
51299;BME280;37382;45.192;9.790;2023-01-28T11:23:24;101635.47;;;5.82;100.00
51299;BME280;37382;45.192;9.790;2023-01-28T11:26:08;101628.59;;;6.17;100.00
51299;BME280;37382;45.192;9.790;2023-01-28T11:28:41;101626.41;;;6.30;100.00
51299;BME280;37382;45.192;9.790;2023-01-28T11:31:16;101630.63;;;6.05;100.00
51299;BME280;37382;45.192;9.790;2023-01-28T11:33:54;101618.47;;;6.19;100.00
51299;BME280;37382;45.192;9.790;2023-01-28T11:36:30;101619.47;;;6.18;100.00
51299;BME280;37382;45.192;9.790;2023-01-28T11:39:00;101614.59;;;6.59;100.00
51299;BME280;37382;45.192;9.790;2023-01-28T11:41:37;101606.69;;;6.75;100.00
51299;BME280;37382;45.192;9.790;2023-01-28T11:44:23;101607.84;;;6.73;100.00
51299;BME280;37382;45.192;9.790;2023-01-28T11:47:05;101605.28;;;6.71;100.00
51299;BME280;37382;45.192;9.790;2023-01-28T11:52:12;101594.84;;;7.04;100.00
51299;BME280;37382;45.192;9.790;2023-01-28T12:21:03;101560.50;;;7.41;100.00
51299;BME280;37382;45.192;9.790;2023-01-28T12:26:21;101564.50;;;7.37;100.00
51299;BME280;37382;45.192;9.790;2023-01-28T12:28:54;101556.41;;;7.37;100.00
51299;BME280;37382;45.192;9.790;2023-01-28T12:37:30;101557.47;;;8.23;100.00
51299;BME280;37382;45.192;9.790;2023-01-28T12:44:00;101546.53;;;8.92;100.00
51299;BME280;37382;45.192;9.790;2023-01-28T12:46:25;101553.50;;;9.02;100.00
51299;BME280;37382;45.192;9.790;2023-01-28T12:49:09;101553.22;;;8.54;100.00
51299;BME280;37382;45.192;9.790;2023-01-28T12:52:02;101553.81;;;7.79;100.00
51299;BME280;37382;45.192;9.790;2023-01-28T12:57:01;101548.63;;;8.20;100.00
51299;BME280;37382;45.192;9.790;2023-01-28T12:59:33;101539.34;;;8.23;100.00
51299;BME280;37382;45.192;9.790;2023-01-28T13:02:08;101537.06;;;7.76;100.00
51299;BME280;37382;45.192;9.790;2023-01-28T13:07:19;101541.44;;;8.88;100.00
51299;BME280;37382;45.192;9.790;2023-01-28T13:10:29;101543.56;;;7.91;99.44
51299;BME280;37382;45.192;9.790;2023-01-28T13:13:03;101542.56;;;7.92;97.96
51299;BME280;37382;45.192;9.790;2023-01-28T13:15:31;101535.41;;;7.83;100.00
51299;BME280;37382;45.192;9.790;2023-01-28T13:18:03;101535.50;;;7.73;100.00
51299;BME280;37382;45.192;9.790;2023-01-28T13:20:38;101537.63;;;7.88;100.00
51299;BME280;37382;45.192;9.790;2023-01-28T13:25:51;101536.44;;;8.16;98.28
51299;BME280;37382;45.192;9.790;2023-01-28T13:28:30;101533.75;;;8.67;92.85
51299;BME280;37382;45.192;9.790;2023-01-28T13:31:07;101530.25;;;8.83;92.25
51299;BME280;37382;45.192;9.790;2023-01-28T13:33:40;101529.22;;;8.84;93.68
51299;BME280;37382;45.192;9.790;2023-01-28T13:38:44;101521.47;;;9.31;85.52
51299;BME280;37382;45.192;9.790;2023-01-28T13:41:12;101522.47;;;9.46;84.97
51299;BME280;37382;45.192;9.790;2023-01-28T13:43:41;101521.44;;;9.47;83.09
51299;BME280;37382;45.192;9.790;2023-01-28T13:46:12;101527.91;;;9.21;83.62
51299;BME280;37382;45.192;9.790;2023-01-28T13:48:44;101526.03;;;9.55;82.27
51299;BME280;37382;45.192;9.790;2023-01-28T13:51:26;101531.59;;;8.79;80.09
51299;BME280;37382;45.192;9.790;2023-01-28T13:59:36;101539.06;;;8.43;79.11
51299;BME280;37382;45.192;9.790;2023-01-28T14:17:34;101546.56;;;8.14;83.14
51299;BME280;37382;45.192;9.790;2023-01-28T14:20:31;101537.84;;;7.94;82.33
51299;BME280;37382;45.192;9.790;2023-01-28T14:23:05;101543.06;;;7.61;81.75
51299;BME280;37382;45.192;9.790;2023-01-28T14:28:10;101546.16;;;8.35;81.94
51299;BME280;37382;45.192;9.790;2023-01-28T14:30:55;101544.91;;;8.13;77.39
51299;BME280;37382;45.192;9.790;2023-01-28T14:33:26;101539.63;;;8.46;74.09
51299;BME280;37382;45.192;9.790;2023-01-28T14:35:54;101542.19;;;8.13;80.94
51299;BME280;37382;45.192;9.790;2023-01-28T14:38:23;101548.25;;;7.81;82.81
51299;BME280;37382;45.192;9.790;2023-01-28T14:40:51;101546.78;;;8.21;83.21
51299;BME280;37382;45.192;9.790;2023-01-28T14:43:21;101556.81;;;8.29;81.82
51299;BME280;37382;45.192;9.790;2023-01-28T14:46:22;101557.97;;;8.26;80.03
51299;BME280;37382;45.192;9.790;2023-01-28T14:49:48;101558.97;;;8.51;80.63
51299;BME280;37382;45.192;9.790;2023-01-28T15:00:03;101568.25;;;7.80;78.72
51299;BME280;37382;45.192;9.790;2023-01-28T15:02:34;101570.63;;;7.83;78.06
51299;BME280;37382;45.192;9.790;2023-01-28T15:05:08;101569.56;;;7.76;77.22
51299;BME280;37382;45.192;9.790;2023-01-28T15:07:36;101562.06;;;7.96;75.21
51299;BME280;37382;45.192;9.790;2023-01-28T15:10:13;101574.53;;;8.15;77.18
51299;BME280;37382;45.192;9.790;2023-01-28T15:12:45;101570.38;;;8.29;78.82
51299;BME280;37382;45.192;9.790;2023-01-28T15:15:20;101571.94;;;8.40;80.03
51299;BME280;37382;45.192;9.790;2023-01-28T15:17:51;101576.84;;;8.36;80.09
51299;BME280;37382;45.192;9.790;2023-01-28T15:20:21;101573.41;;;8.26;81.87
51299;BME280;37382;45.192;9.790;2023-01-28T15:22:51;101573.59;;;8.32;79.95
51299;BME280;37382;45.192;9.790;2023-01-28T15:25:21;101574.97;;;8.36;79.94
51299;BME280;37382;45.192;9.790;2023-01-28T15:27:51;101575.16;;;8.35;79.77
51299;BME280;37382;45.192;9.790;2023-01-28T15:30:23;101576.84;;;7.75;81.08
51299;BME280;37382;45.192;9.790;2023-01-28T15:33:01;101579.16;;;7.70;82.53
51299;BME280;37382;45.192;9.790;2023-01-28T15:35:30;101585.13;;;8.00;82.70
51299;BME280;37382;45.192;9.790;2023-01-28T15:37:58;101577.94;;;8.17;81.21
51299;BME280;37382;45.192;9.790;2023-01-28T15:40:27;101588.16;;;7.97;89.30
51299;BME280;37382;45.192;9.790;2023-01-28T15:42:56;101584.47;;;8.06;87.26
51299;BME280;37382;45.192;9.790;2023-01-28T15:45:27;101593.88;;;8.20;87.64
51299;BME280;37382;45.192;9.790;2023-01-28T15:48:02;101596.28;;;7.97;94.03
51299;BME280;37382;45.192;9.790;2023-01-28T15:50:30;101599.41;;;8.10;89.55
51299;BME280;37382;45.192;9.790;2023-01-28T15:52:58;101597.88;;;7.81;93.34
51299;BME280;37382;45.192;9.790;2023-01-28T15:55:32;101598.13;;;7.70;95.68
51299;BME280;37382;45.192;9.790;2023-01-28T16:00:46;101606.41;;;7.51;100.00
51299;BME280;37382;45.192;9.790;2023-01-28T16:03:19;101602.03;;;7.50;95.53
51299;BME280;37382;45.192;9.790;2023-01-28T16:05:58;101610.78;;;7.43;93.75
51299;BME280;37382;45.192;9.790;2023-01-28T16:11:07;101608.44;;;7.30;90.36
51299;BME280;37382;45.192;9.790;2023-01-28T16:13:41;101610.09;;;7.23;91.85
51299;BME280;37382;45.192;9.790;2023-01-28T16:16:09;101616.03;;;7.09;100.00
51299;BME280;37382;45.192;9.790;2023-01-28T16:18:42;101614.84;;;6.93;100.00
51299;BME280;37382;45.192;9.790;2023-01-28T16:21:19;101614.13;;;6.73;100.00
51299;BME280;37382;45.192;9.790;2023-01-28T16:23:57;101623.97;;;6.65;100.00
51299;BME280;37382;45.192;9.790;2023-01-28T16:26:28;101619.09;;;6.50;100.00
51299;BME280;37382;45.192;9.790;2023-01-28T16:28:56;101611.72;;;6.43;100.00
51299;BME280;37382;45.192;9.790;2023-01-28T16:31:23;101620.00;;;6.31;100.00
51299;BME280;37382;45.192;9.790;2023-01-28T16:33:51;101619.75;;;6.25;100.00
51299;BME280;37382;45.192;9.790;2023-01-28T16:36:18;101619.19;;;6.21;100.00
51299;BME280;37382;45.192;9.790;2023-01-28T16:38:46;101629.28;;;6.19;100.00
51299;BME280;37382;45.192;9.790;2023-01-28T16:41:23;101623.78;;;6.11;100.00
51299;BME280;37382;45.192;9.790;2023-01-28T16:43:52;101639.84;;;6.02;100.00
51299;BME280;37382;45.192;9.790;2023-01-28T16:46:20;101642.56;;;5.93;100.00
51299;BME280;37382;45.192;9.790;2023-01-28T16:48:48;101650.94;;;5.90;100.00
51299;BME280;37382;45.192;9.790;2023-01-28T16:51:16;101650.53;;;5.75;100.00
51299;BME280;37382;45.192;9.790;2023-01-28T16:53:45;101661.47;;;5.63;100.00
51299;BME280;37382;45.192;9.790;2023-01-28T16:56:16;101654.81;;;5.58;100.00
51299;BME280;37382;45.192;9.790;2023-01-28T16:59:04;101664.31;;;5.42;100.00
51299;BME280;37382;45.192;9.790;2023-01-28T17:01:32;101663.31;;;5.33;100.00
51299;BME280;37382;45.192;9.790;2023-01-28T17:03:59;101669.28;;;5.27;100.00
51299;BME280;37382;45.192;9.790;2023-01-28T17:06:27;101678.50;;;5.15;100.00
51299;BME280;37382;45.192;9.790;2023-01-28T17:08:55;101682.16;;;5.14;100.00
51299;BME280;37382;45.192;9.790;2023-01-28T17:11:22;101681.34;;;5.23;100.00
51299;BME280;37382;45.192;9.790;2023-01-28T17:13:50;101693.69;;;5.26;100.00
51299;BME280;37382;45.192;9.790;2023-01-28T17:16:17;101694.69;;;5.15;100.00
51299;BME280;37382;45.192;9.790;2023-01-28T17:18:49;101695.75;;;4.93;100.00
51299;BME280;37382;45.192;9.790;2023-01-28T17:21:17;101704.44;;;4.66;100.00
51299;BME280;37382;45.192;9.790;2023-01-28T17:23:45;101707.25;;;4.33;100.00
51299;BME280;37382;45.192;9.790;2023-01-28T17:26:14;101705.63;;;4.21;100.00
51299;BME280;37382;45.192;9.790;2023-01-28T17:28:42;101709.50;;;4.07;100.00
51299;BME280;37382;45.192;9.790;2023-01-28T17:31:12;101721.47;;;4.14;100.00
51299;BME280;37382;45.192;9.790;2023-01-28T17:33:41;101724.03;;;4.16;100.00
51299;BME280;37382;45.192;9.790;2023-01-28T17:36:09;101732.16;;;4.25;100.00
51299;BME280;37382;45.192;9.790;2023-01-28T17:38:37;101730.38;;;4.36;100.00
51299;BME280;37382;45.192;9.790;2023-01-28T17:41:07;101733.47;;;4.52;100.00
51299;BME280;37382;45.192;9.790;2023-01-28T17:43:34;101730.16;;;4.49;100.00
51299;BME280;37382;45.192;9.790;2023-01-28T17:46:13;101738.38;;;4.47;100.00
51299;BME280;37382;45.192;9.790;2023-01-28T17:48:42;101730.78;;;4.52;100.00
51299;BME280;37382;45.192;9.790;2023-01-28T17:51:13;101741.06;;;4.47;100.00
51299;BME280;37382;45.192;9.790;2023-01-28T17:53:47;101739.56;;;4.54;100.00
51299;BME280;37382;45.192;9.790;2023-01-28T17:56:24;101744.75;;;4.46;100.00
51299;BME280;37382;45.192;9.790;2023-01-28T18:01:22;101755.25;;;4.49;100.00
51299;BME280;37382;45.192;9.790;2023-01-28T18:03:50;101759.94;;;4.47;100.00
51299;BME280;37382;45.192;9.790;2023-01-28T18:06:17;101763.16;;;4.41;100.00
51299;BME280;37382;45.192;9.790;2023-01-28T18:08:45;101761.00;;;4.35;100.00
51299;BME280;37382;45.192;9.790;2023-01-28T18:11:14;101769.53;;;4.40;100.00
51299;BME280;37382;45.192;9.790;2023-01-28T18:13:43;101769.78;;;4.37;100.00
51299;BME280;37382;45.192;9.790;2023-01-28T18:16:13;101769.34;;;4.32;100.00
51299;BME280;37382;45.192;9.790;2023-01-28T18:18:43;101774.28;;;4.26;100.00
51299;BME280;37382;45.192;9.790;2023-01-28T18:21:29;101780.06;;;4.22;100.00
51299;BME280;37382;45.192;9.790;2023-01-28T18:24:13;101775.06;;;4.17;100.00
51299;BME280;37382;45.192;9.790;2023-01-28T18:26:41;101773.75;;;4.12;100.00
51299;BME280;37382;45.192;9.790;2023-01-28T18:29:08;101782.84;;;3.99;100.00
51299;BME280;37382;45.192;9.790;2023-01-28T18:31:35;101785.56;;;3.99;100.00
51299;BME280;37382;45.192;9.790;2023-01-28T18:34:03;101787.88;;;3.92;100.00
51299;BME280;37382;45.192;9.790;2023-01-28T18:36:30;101784.88;;;3.86;100.00
51299;BME280;37382;45.192;9.790;2023-01-28T18:38:57;101790.00;;;3.89;100.00
51299;BME280;37382;45.192;9.790;2023-01-28T18:41:25;101794.66;;;3.87;100.00
51299;BME280;37382;45.192;9.790;2023-01-28T18:43:52;101795.38;;;3.89;100.00
51299;BME280;37382;45.192;9.790;2023-01-28T18:46:20;101795.75;;;3.84;100.00
51299;BME280;37382;45.192;9.790;2023-01-28T18:48:48;101800.50;;;3.48;100.00
51299;BME280;37382;45.192;9.790;2023-01-28T18:51:16;101812.13;;;2.92;100.00
51299;BME280;37382;45.192;9.790;2023-01-28T18:53:57;101809.56;;;2.68;100.00
51299;BME280;37382;45.192;9.790;2023-01-28T18:56:27;101811.13;;;2.59;100.00
51299;BME280;37382;45.192;9.790;2023-01-28T18:58:59;101824.53;;;2.48;100.00
51299;BME280;37382;45.192;9.790;2023-01-28T19:01:27;101824.69;;;2.58;100.00
51299;BME280;37382;45.192;9.790;2023-01-28T19:03:56;101833.88;;;2.31;100.00
51299;BME280;37382;45.192;9.790;2023-01-28T19:06:26;101834.41;;;2.36;100.00
51299;BME280;37382;45.192;9.790;2023-01-28T19:08:55;101834.34;;;2.25;100.00
51299;BME280;37382;45.192;9.790;2023-01-28T19:11:25;101836.63;;;2.42;100.00
51299;BME280;37382;45.192;9.790;2023-01-28T19:13:52;101826.25;;;2.60;100.00
51299;BME280;37382;45.192;9.790;2023-01-28T19:16:20;101831.47;;;2.39;100.00
51299;BME280;37382;45.192;9.790;2023-01-28T19:18:59;101835.75;;;2.42;100.00
51299;BME280;37382;45.192;9.790;2023-01-28T19:21:28;101844.22;;;2.60;100.00
51299;BME280;37382;45.192;9.790;2023-01-28T19:23:59;101850.91;;;2.54;100.00
51299;BME280;37382;45.192;9.790;2023-01-28T19:26:28;101853.78;;;2.75;100.00
51299;BME280;37382;45.192;9.790;2023-01-28T19:28:56;101845.25;;;2.93;100.00
51299;BME280;37382;45.192;9.790;2023-01-28T19:31:24;101847.84;;;2.94;100.00
51299;BME280;37382;45.192;9.790;2023-01-28T19:33:56;101856.78;;;3.06;100.00
51299;BME280;37382;45.192;9.790;2023-01-28T19:36:25;101851.16;;;3.09;100.00
51299;BME280;37382;45.192;9.790;2023-01-28T19:39:01;101854.56;;;3.11;100.00
51299;BME280;37382;45.192;9.790;2023-01-28T19:41:29;101861.78;;;3.11;100.00
51299;BME280;37382;45.192;9.790;2023-01-28T19:43:57;101856.25;;;2.90;100.00
51299;BME280;37382;45.192;9.790;2023-01-28T19:46:25;101871.47;;;2.31;100.00
51299;BME280;37382;45.192;9.790;2023-01-28T19:48:53;101874.00;;;2.57;100.00
51299;BME280;37382;45.192;9.790;2023-01-28T19:51:20;101879.19;;;2.71;100.00
51299;BME280;37382;45.192;9.790;2023-01-28T19:53:50;101867.44;;;2.72;100.00
51299;BME280;37382;45.192;9.790;2023-01-28T19:56:19;101876.75;;;2.79;100.00
51299;BME280;37382;45.192;9.790;2023-01-28T19:58:47;101877.72;;;2.78;100.00
51299;BME280;37382;45.192;9.790;2023-01-28T20:01:19;101872.75;;;2.85;100.00
51299;BME280;37382;45.192;9.790;2023-01-28T20:03:55;101884.69;;;2.70;100.00
51299;BME280;37382;45.192;9.790;2023-01-28T20:06:26;101893.19;;;2.28;100.00
51299;BME280;37382;45.192;9.790;2023-01-28T20:09:03;101901.66;;;2.10;100.00
51299;BME280;37382;45.192;9.790;2023-01-28T20:11:32;101899.13;;;2.20;100.00
51299;BME280;37382;45.192;9.790;2023-01-28T20:13:59;101892.50;;;2.37;100.00